sensor_id;sensor_type;location;lat;lon;timestamp;P1;durP1;ratioP1;P2;durP2;ratioP2
25207;SDS011;13153;52.316;21.166;2022-11-27T00:00:58;80.43;;;32.30;;
25207;SDS011;13153;52.316;21.166;2022-11-27T00:03:24;78.85;;;33.33;;
25207;SDS011;13153;52.316;21.166;2022-11-27T00:05:53;76.65;;;32.75;;
25207;SDS011;13153;52.316;21.166;2022-11-27T00:08:21;81.95;;;33.95;;
25207;SDS011;13153;52.316;21.166;2022-11-27T00:10:48;87.60;;;35.05;;
25207;SDS011;13153;52.316;21.166;2022-11-27T00:13:14;85.55;;;35.72;;
25207;SDS011;13153;52.316;21.166;2022-11-27T00:15:40;82.38;;;34.25;;
25207;SDS011;13153;52.316;21.166;2022-11-27T00:18:06;88.68;;;35.65;;
25207;SDS011;13153;52.316;21.166;2022-11-27T00:20:32;85.70;;;36.03;;
25207;SDS011;13153;52.316;21.166;2022-11-27T00:22:58;92.30;;;37.42;;
25207;SDS011;13153;52.316;21.166;2022-11-27T00:25:24;84.57;;;35.65;;
25207;SDS011;13153;52.316;21.166;2022-11-27T00:27:50;83.55;;;34.95;;
25207;SDS011;13153;52.316;21.166;2022-11-27T00:30:16;83.82;;;36.30;;
25207;SDS011;13153;52.316;21.166;2022-11-27T00:32:42;98.45;;;37.90;;
25207;SDS011;13153;52.316;21.166;2022-11-27T00:35:08;90.13;;;37.60;;
25207;SDS011;13153;52.316;21.166;2022-11-27T00:37:34;90.47;;;35.67;;
25207;SDS011;13153;52.316;21.166;2022-11-27T00:39:59;95.85;;;37.55;;
25207;SDS011;13153;52.316;21.166;2022-11-27T00:42:25;86.43;;;36.60;;
25207;SDS011;13153;52.316;21.166;2022-11-27T00:44:51;88.90;;;37.15;;
25207;SDS011;13153;52.316;21.166;2022-11-27T00:47:17;92.47;;;37.25;;
25207;SDS011;13153;52.316;21.166;2022-11-27T00:49:43;90.20;;;36.13;;
25207;SDS011;13153;52.316;21.166;2022-11-27T00:52:10;97.93;;;38.13;;
25207;SDS011;13153;52.316;21.166;2022-11-27T00:54:36;93.20;;;37.42;;
25207;SDS011;13153;52.316;21.166;2022-11-27T00:57:02;90.35;;;36.72;;
25207;SDS011;13153;52.316;21.166;2022-11-27T00:59:29;99.10;;;37.00;;
25207;SDS011;13153;52.316;21.166;2022-11-27T01:01:55;90.43;;;36.78;;
25207;SDS011;13153;52.316;21.166;2022-11-27T01:04:21;90.25;;;35.72;;
25207;SDS011;13153;52.316;21.166;2022-11-27T01:06:47;87.30;;;35.55;;
25207;SDS011;13153;52.316;21.166;2022-11-27T01:09:13;94.22;;;37.38;;
25207;SDS011;13153;52.316;21.166;2022-11-27T01:11:40;96.32;;;38.58;;
25207;SDS011;13153;52.316;21.166;2022-11-27T01:14:07;88.70;;;36.97;;
25207;SDS011;13153;52.316;21.166;2022-11-27T01:16:39;96.13;;;38.75;;
25207;SDS011;13153;52.316;21.166;2022-11-27T01:19:05;98.53;;;40.60;;
25207;SDS011;13153;52.316;21.166;2022-11-27T01:21:32;100.80;;;39.10;;
25207;SDS011;13153;52.316;21.166;2022-11-27T01:23:59;97.85;;;39.83;;
25207;SDS011;13153;52.316;21.166;2022-11-27T01:26:27;106.75;;;40.53;;
25207;SDS011;13153;52.316;21.166;2022-11-27T01:28:54;106.85;;;40.70;;
25207;SDS011;13153;52.316;21.166;2022-11-27T01:31:23;105.10;;;40.95;;
25207;SDS011;13153;52.316;21.166;2022-11-27T01:33:52;103.60;;;41.40;;
25207;SDS011;13153;52.316;21.166;2022-11-27T01:36:22;104.65;;;40.45;;
25207;SDS011;13153;52.316;21.166;2022-11-27T01:38:48;106.10;;;40.58;;
25207;SDS011;13153;52.316;21.166;2022-11-27T01:41:21;111.43;;;42.85;;
25207;SDS011;13153;52.316;21.166;2022-11-27T01:44:01;106.63;;;43.45;;
25207;SDS011;13153;52.316;21.166;2022-11-27T01:46:57;107.60;;;42.67;;
25207;SDS011;13153;52.316;21.166;2022-11-27T01:49:42;111.95;;;42.13;;
25207;SDS011;13153;52.316;21.166;2022-11-27T01:52:18;111.22;;;41.92;;
25207;SDS011;13153;52.316;21.166;2022-11-27T01:57:29;101.82;;;41.13;;
25207;SDS011;13153;52.316;21.166;2022-11-27T02:00:05;95.18;;;37.75;;
25207;SDS011;13153;52.316;21.166;2022-11-27T02:02:34;99.03;;;38.20;;
25207;SDS011;13153;52.316;21.166;2022-11-27T02:05:00;95.97;;;37.00;;
25207;SDS011;13153;52.316;21.166;2022-11-27T02:07:26;105.80;;;38.33;;
25207;SDS011;13153;52.316;21.166;2022-11-27T02:09:52;96.78;;;37.67;;
25207;SDS011;13153;52.316;21.166;2022-11-27T02:12:28;91.55;;;36.97;;
25207;SDS011;13153;52.316;21.166;2022-11-27T02:24:23;98.95;;;36.03;;
25207;SDS011;13153;52.316;21.166;2022-11-27T02:27:06;89.78;;;35.88;;
25207;SDS011;13153;52.316;21.166;2022-11-27T02:30:03;87.65;;;35.55;;
25207;SDS011;13153;52.316;21.166;2022-11-27T02:32:34;90.88;;;36.08;;
25207;SDS011;13153;52.316;21.166;2022-11-27T02:35:30;87.50;;;34.70;;
25207;SDS011;13153;52.316;21.166;2022-11-27T02:38:06;87.30;;;35.03;;
25207;SDS011;13153;52.316;21.166;2022-11-27T02:43:38;91.15;;;34.50;;
25207;SDS011;13153;52.316;21.166;2022-11-27T02:46:09;85.38;;;34.78;;
25207;SDS011;13153;52.316;21.166;2022-11-27T02:48:38;83.05;;;33.45;;
25207;SDS011;13153;52.316;21.166;2022-11-27T02:51:12;80.80;;;32.83;;
25207;SDS011;13153;52.316;21.166;2022-11-27T02:53:50;86.68;;;33.88;;
25207;SDS011;13153;52.316;21.166;2022-11-27T02:56:23;86.00;;;34.03;;
25207;SDS011;13153;52.316;21.166;2022-11-27T02:58:54;84.88;;;33.67;;
25207;SDS011;13153;52.316;21.166;2022-11-27T03:01:26;88.65;;;34.90;;
25207;SDS011;13153;52.316;21.166;2022-11-27T03:03:58;88.50;;;34.20;;
25207;SDS011;13153;52.316;21.166;2022-11-27T03:06:33;81.60;;;33.38;;
25207;SDS011;13153;52.316;21.166;2022-11-27T03:09:18;85.38;;;33.25;;
25207;SDS011;13153;52.316;21.166;2022-11-27T03:11:51;87.05;;;33.30;;
25207;SDS011;13153;52.316;21.166;2022-11-27T03:14:18;91.93;;;34.67;;
25207;SDS011;13153;52.316;21.166;2022-11-27T03:17:10;86.82;;;34.72;;
25207;SDS011;13153;52.316;21.166;2022-11-27T03:20:14;81.90;;;33.25;;
25207;SDS011;13153;52.316;21.166;2022-11-27T03:22:47;84.75;;;34.45;;
25207;SDS011;13153;52.316;21.166;2022-11-27T03:25:13;85.18;;;34.28;;
25207;SDS011;13153;52.316;21.166;2022-11-27T03:27:45;90.40;;;34.88;;
25207;SDS011;13153;52.316;21.166;2022-11-27T03:30:18;85.40;;;34.40;;
25207;SDS011;13153;52.316;21.166;2022-11-27T03:32:44;85.47;;;34.13;;
25207;SDS011;13153;52.316;21.166;2022-11-27T03:35:10;84.97;;;34.55;;
25207;SDS011;13153;52.316;21.166;2022-11-27T03:37:40;85.32;;;33.90;;
25207;SDS011;13153;52.316;21.166;2022-11-27T03:40:06;84.90;;;35.17;;
25207;SDS011;13153;52.316;21.166;2022-11-27T03:50:59;83.07;;;33.80;;
25207;SDS011;13153;52.316;21.166;2022-11-27T03:56:30;88.88;;;34.65;;
25207;SDS011;13153;52.316;21.166;2022-11-27T03:59:21;88.72;;;34.85;;
25207;SDS011;13153;52.316;21.166;2022-11-27T04:01:54;89.03;;;35.53;;
25207;SDS011;13153;52.316;21.166;2022-11-27T04:04:19;85.82;;;35.40;;
25207;SDS011;13153;52.316;21.166;2022-11-27T04:06:45;91.65;;;36.15;;
25207;SDS011;13153;52.316;21.166;2022-11-27T04:09:11;90.47;;;36.05;;
25207;SDS011;13153;52.316;21.166;2022-11-27T04:11:36;93.10;;;35.85;;
25207;SDS011;13153;52.316;21.166;2022-11-27T04:14:02;85.93;;;35.15;;
25207;SDS011;13153;52.316;21.166;2022-11-27T04:16:28;88.63;;;36.15;;
25207;SDS011;13153;52.316;21.166;2022-11-27T04:18:54;92.15;;;37.58;;
25207;SDS011;13153;52.316;21.166;2022-11-27T04:21:20;88.70;;;36.58;;
25207;SDS011;13153;52.316;21.166;2022-11-27T04:23:46;88.75;;;37.33;;
25207;SDS011;13153;52.316;21.166;2022-11-27T04:26:11;90.70;;;36.83;;
25207;SDS011;13153;52.316;21.166;2022-11-27T04:28:37;90.22;;;36.78;;
25207;SDS011;13153;52.316;21.166;2022-11-27T04:31:03;91.13;;;37.88;;
25207;SDS011;13153;52.316;21.166;2022-11-27T04:33:29;106.20;;;42.13;;
25207;SDS011;13153;52.316;21.166;2022-11-27T04:35:54;110.03;;;43.08;;
25207;SDS011;13153;52.316;21.166;2022-11-27T04:38:20;101.43;;;42.60;;
25207;SDS011;13153;52.316;21.166;2022-11-27T04:40:46;104.93;;;43.17;;
25207;SDS011;13153;52.316;21.166;2022-11-27T04:43:12;111.47;;;46.17;;
25207;SDS011;13153;52.316;21.166;2022-11-27T04:45:38;116.05;;;47.53;;
25207;SDS011;13153;52.316;21.166;2022-11-27T04:48:05;113.78;;;47.17;;
25207;SDS011;13153;52.316;21.166;2022-11-27T04:50:31;111.20;;;46.13;;
25207;SDS011;13153;52.316;21.166;2022-11-27T04:52:57;106.82;;;43.38;;
25207;SDS011;13153;52.316;21.166;2022-11-27T04:55:23;106.93;;;43.72;;
25207;SDS011;13153;52.316;21.166;2022-11-27T04:57:49;114.57;;;43.45;;
25207;SDS011;13153;52.316;21.166;2022-11-27T05:00:15;106.53;;;43.35;;
25207;SDS011;13153;52.316;21.166;2022-11-27T05:02:41;112.15;;;42.85;;
25207;SDS011;13153;52.316;21.166;2022-11-27T05:05:07;105.88;;;43.67;;
25207;SDS011;13153;52.316;21.166;2022-11-27T05:07:33;110.15;;;44.13;;
25207;SDS011;13153;52.316;21.166;2022-11-27T05:09:59;104.40;;;43.35;;
25207;SDS011;13153;52.316;21.166;2022-11-27T05:12:25;111.40;;;43.75;;
25207;SDS011;13153;52.316;21.166;2022-11-27T05:14:50;110.40;;;43.55;;
25207;SDS011;13153;52.316;21.166;2022-11-27T05:17:16;114.30;;;43.28;;
25207;SDS011;13153;52.316;21.166;2022-11-27T05:19:42;109.40;;;44.22;;
25207;SDS011;13153;52.316;21.166;2022-11-27T05:22:07;114.60;;;43.13;;
25207;SDS011;13153;52.316;21.166;2022-11-27T05:24:33;106.38;;;43.95;;
25207;SDS011;13153;52.316;21.166;2022-11-27T05:26:59;115.47;;;44.35;;
25207;SDS011;13153;52.316;21.166;2022-11-27T05:29:25;109.07;;;42.75;;
25207;SDS011;13153;52.316;21.166;2022-11-27T05:31:50;109.85;;;43.53;;
25207;SDS011;13153;52.316;21.166;2022-11-27T05:34:17;105.10;;;43.58;;
25207;SDS011;13153;52.316;21.166;2022-11-27T05:36:43;112.20;;;44.95;;
25207;SDS011;13153;52.316;21.166;2022-11-27T05:39:09;109.95;;;43.92;;
25207;SDS011;13153;52.316;21.166;2022-11-27T05:41:36;114.93;;;44.42;;
25207;SDS011;13153;52.316;21.166;2022-11-27T05:44:04;116.10;;;44.75;;
25207;SDS011;13153;52.316;21.166;2022-11-27T05:46:30;112.20;;;43.75;;
25207;SDS011;13153;52.316;21.166;2022-11-27T05:48:57;114.15;;;44.78;;
25207;SDS011;13153;52.316;21.166;2022-11-27T05:51:23;106.85;;;42.50;;
25207;SDS011;13153;52.316;21.166;2022-11-27T05:53:49;113.07;;;44.47;;
25207;SDS011;13153;52.316;21.166;2022-11-27T05:56:16;123.25;;;46.53;;
25207;SDS011;13153;52.316;21.166;2022-11-27T05:58:43;112.50;;;44.72;;
25207;SDS011;13153;52.316;21.166;2022-11-27T06:01:12;115.65;;;44.72;;
25207;SDS011;13153;52.316;21.166;2022-11-27T06:03:40;113.80;;;44.30;;
25207;SDS011;13153;52.316;21.166;2022-11-27T06:06:09;113.85;;;44.65;;
25207;SDS011;13153;52.316;21.166;2022-11-27T06:08:39;119.82;;;46.75;;
25207;SDS011;13153;52.316;21.166;2022-11-27T06:11:06;124.47;;;46.05;;
25207;SDS011;13153;52.316;21.166;2022-11-27T06:13:34;118.97;;;45.65;;
25207;SDS011;13153;52.316;21.166;2022-11-27T06:16:11;121.50;;;46.42;;
25207;SDS011;13153;52.316;21.166;2022-11-27T06:18:43;119.55;;;45.72;;
25207;SDS011;13153;52.316;21.166;2022-11-27T06:21:11;121.55;;;45.65;;
25207;SDS011;13153;52.316;21.166;2022-11-27T06:23:39;117.72;;;45.13;;
25207;SDS011;13153;52.316;21.166;2022-11-27T06:28:44;101.30;;;41.78;;
25207;SDS011;13153;52.316;21.166;2022-11-27T06:31:13;103.47;;;41.72;;
25207;SDS011;13153;52.316;21.166;2022-11-27T06:33:42;110.18;;;43.00;;
25207;SDS011;13153;52.316;21.166;2022-11-27T06:36:08;103.70;;;40.80;;
25207;SDS011;13153;52.316;21.166;2022-11-27T06:38:35;94.80;;;40.38;;
25207;SDS011;13153;52.316;21.166;2022-11-27T06:41:03;97.57;;;38.35;;
25207;SDS011;13153;52.316;21.166;2022-11-27T06:43:34;95.30;;;39.13;;
25207;SDS011;13153;52.316;21.166;2022-11-27T06:46:00;99.20;;;39.58;;
25207;SDS011;13153;52.316;21.166;2022-11-27T06:48:29;93.28;;;38.58;;
25207;SDS011;13153;52.316;21.166;2022-11-27T06:50:59;103.68;;;40.88;;
25207;SDS011;13153;52.316;21.166;2022-11-27T06:53:36;104.10;;;42.28;;
25207;SDS011;13153;52.316;21.166;2022-11-27T06:56:06;110.72;;;43.10;;
25207;SDS011;13153;52.316;21.166;2022-11-27T06:58:36;126.07;;;49.17;;
25207;SDS011;13153;52.316;21.166;2022-11-27T07:01:03;113.53;;;47.13;;
25207;SDS011;13153;52.316;21.166;2022-11-27T07:03:32;114.97;;;46.40;;
25207;SDS011;13153;52.316;21.166;2022-11-27T07:05:58;136.30;;;51.38;;
25207;SDS011;13153;52.316;21.166;2022-11-27T07:08:26;127.47;;;49.72;;
25207;SDS011;13153;52.316;21.166;2022-11-27T07:10:53;124.50;;;48.13;;
25207;SDS011;13153;52.316;21.166;2022-11-27T07:13:24;122.15;;;48.05;;
25207;SDS011;13153;52.316;21.166;2022-11-27T07:15:50;117.95;;;46.75;;
25207;SDS011;13153;52.316;21.166;2022-11-27T07:18:16;117.60;;;46.40;;
25207;SDS011;13153;52.316;21.166;2022-11-27T07:20:41;121.10;;;46.83;;
25207;SDS011;13153;52.316;21.166;2022-11-27T07:23:07;117.18;;;46.50;;
25207;SDS011;13153;52.316;21.166;2022-11-27T07:25:33;126.82;;;48.38;;
25207;SDS011;13153;52.316;21.166;2022-11-27T07:28:01;125.38;;;47.53;;
25207;SDS011;13153;52.316;21.166;2022-11-27T07:30:26;121.07;;;48.30;;
25207;SDS011;13153;52.316;21.166;2022-11-27T07:32:52;119.00;;;47.75;;
25207;SDS011;13153;52.316;21.166;2022-11-27T07:35:18;127.82;;;48.83;;
25207;SDS011;13153;52.316;21.166;2022-11-27T07:37:43;131.90;;;51.65;;
25207;SDS011;13153;52.316;21.166;2022-11-27T07:40:09;140.23;;;54.78;;
25207;SDS011;13153;52.316;21.166;2022-11-27T07:42:35;130.38;;;49.05;;
25207;SDS011;13153;52.316;21.166;2022-11-27T07:45:01;124.28;;;47.60;;
25207;SDS011;13153;52.316;21.166;2022-11-27T07:47:28;129.80;;;48.30;;
25207;SDS011;13153;52.316;21.166;2022-11-27T07:49:54;131.50;;;47.70;;
25207;SDS011;13153;52.316;21.166;2022-11-27T07:52:22;127.20;;;47.58;;
25207;SDS011;13153;52.316;21.166;2022-11-27T07:54:47;131.88;;;48.80;;
25207;SDS011;13153;52.316;21.166;2022-11-27T07:57:13;137.80;;;49.67;;
25207;SDS011;13153;52.316;21.166;2022-11-27T07:59:39;144.27;;;50.58;;
25207;SDS011;13153;52.316;21.166;2022-11-27T08:02:05;137.85;;;48.70;;
25207;SDS011;13153;52.316;21.166;2022-11-27T08:04:30;140.18;;;50.65;;
25207;SDS011;13153;52.316;21.166;2022-11-27T08:06:56;138.98;;;50.55;;
25207;SDS011;13153;52.316;21.166;2022-11-27T08:09:22;144.60;;;50.88;;
25207;SDS011;13153;52.316;21.166;2022-11-27T08:11:48;149.73;;;50.63;;
25207;SDS011;13153;52.316;21.166;2022-11-27T08:14:14;141.02;;;51.58;;
25207;SDS011;13153;52.316;21.166;2022-11-27T08:16:40;150.05;;;52.50;;
25207;SDS011;13153;52.316;21.166;2022-11-27T08:19:06;148.45;;;51.00;;
25207;SDS011;13153;52.316;21.166;2022-11-27T08:21:31;154.80;;;51.70;;
25207;SDS011;13153;52.316;21.166;2022-11-27T08:23:57;167.20;;;59.60;;
25207;SDS011;13153;52.316;21.166;2022-11-27T08:26:23;156.02;;;55.38;;
25207;SDS011;13153;52.316;21.166;2022-11-27T08:28:51;146.85;;;50.78;;
25207;SDS011;13153;52.316;21.166;2022-11-27T08:31:17;147.18;;;49.08;;
25207;SDS011;13153;52.316;21.166;2022-11-27T08:33:45;148.65;;;49.90;;
25207;SDS011;13153;52.316;21.166;2022-11-27T08:36:11;152.57;;;52.17;;
25207;SDS011;13153;52.316;21.166;2022-11-27T08:38:37;156.63;;;53.55;;
25207;SDS011;13153;52.316;21.166;2022-11-27T08:41:03;157.50;;;54.00;;
25207;SDS011;13153;52.316;21.166;2022-11-27T08:43:30;152.20;;;52.80;;
25207;SDS011;13153;52.316;21.166;2022-11-27T08:45:56;176.50;;;56.80;;
25207;SDS011;13153;52.316;21.166;2022-11-27T08:48:23;186.57;;;59.33;;
25207;SDS011;13153;52.316;21.166;2022-11-27T08:50:50;186.90;;;60.33;;
25207;SDS011;13153;52.316;21.166;2022-11-27T08:53:17;174.27;;;57.97;;
25207;SDS011;13153;52.316;21.166;2022-11-27T08:55:43;183.32;;;59.35;;
25207;SDS011;13153;52.316;21.166;2022-11-27T08:58:09;192.90;;;62.75;;
25207;SDS011;13153;52.316;21.166;2022-11-27T09:00:35;194.25;;;59.53;;
25207;SDS011;13153;52.316;21.166;2022-11-27T09:03:02;197.57;;;62.13;;
25207;SDS011;13153;52.316;21.166;2022-11-27T09:05:29;180.35;;;57.65;;
25207;SDS011;13153;52.316;21.166;2022-11-27T09:07:56;163.02;;;54.17;;
25207;SDS011;13153;52.316;21.166;2022-11-27T09:10:23;165.30;;;55.03;;
25207;SDS011;13153;52.316;21.166;2022-11-27T09:12:49;167.65;;;55.30;;
25207;SDS011;13153;52.316;21.166;2022-11-27T09:15:16;168.82;;;55.50;;
25207;SDS011;13153;52.316;21.166;2022-11-27T09:17:42;168.80;;;56.65;;
25207;SDS011;13153;52.316;21.166;2022-11-27T09:20:09;185.93;;;60.78;;
25207;SDS011;13153;52.316;21.166;2022-11-27T09:22:35;186.38;;;61.65;;
25207;SDS011;13153;52.316;21.166;2022-11-27T09:25:01;165.57;;;56.95;;
25207;SDS011;13153;52.316;21.166;2022-11-27T09:27:27;178.75;;;59.03;;
25207;SDS011;13153;52.316;21.166;2022-11-27T09:29:53;176.70;;;59.50;;
25207;SDS011;13153;52.316;21.166;2022-11-27T09:32:19;175.23;;;60.00;;
25207;SDS011;13153;52.316;21.166;2022-11-27T09:34:47;166.70;;;57.33;;
25207;SDS011;13153;52.316;21.166;2022-11-27T09:37:15;157.02;;;54.17;;
25207;SDS011;13153;52.316;21.166;2022-11-27T09:39:41;158.15;;;53.30;;
25207;SDS011;13153;52.316;21.166;2022-11-27T09:42:07;160.75;;;54.40;;
25207;SDS011;13153;52.316;21.166;2022-11-27T09:44:54;158.02;;;53.55;;
25207;SDS011;13153;52.316;21.166;2022-11-27T09:50:03;155.45;;;54.00;;
25207;SDS011;13153;52.316;21.166;2022-11-27T09:52:53;157.68;;;53.72;;
25207;SDS011;13153;52.316;21.166;2022-11-27T09:55:31;158.93;;;54.10;;
25207;SDS011;13153;52.316;21.166;2022-11-27T09:58:53;157.30;;;53.05;;
25207;SDS011;13153;52.316;21.166;2022-11-27T10:01:09;138.57;;;51.78;;
25207;SDS011;13153;52.316;21.166;2022-11-27T10:03:41;155.13;;;53.97;;
25207;SDS011;13153;52.316;21.166;2022-11-27T10:06:13;149.30;;;55.03;;
25207;SDS011;13153;52.316;21.166;2022-11-27T10:09:54;149.98;;;52.25;;
25207;SDS011;13153;52.316;21.166;2022-11-27T10:17:42;148.50;;;54.10;;
25207;SDS011;13153;52.316;21.166;2022-11-27T10:25:52;157.88;;;58.50;;
25207;SDS011;13153;52.316;21.166;2022-11-27T10:34:42;145.48;;;54.83;;
25207;SDS011;13153;52.316;21.166;2022-11-27T10:48:18;144.00;;;54.72;;
25207;SDS011;13153;52.316;21.166;2022-11-27T10:50:44;148.23;;;56.17;;
25207;SDS011;13153;52.316;21.166;2022-11-27T10:53:13;147.10;;;55.47;;
25207;SDS011;13153;52.316;21.166;2022-11-27T10:58:43;157.15;;;61.55;;
25207;SDS011;13153;52.316;21.166;2022-11-27T11:01:20;144.25;;;58.45;;
25207;SDS011;13153;52.316;21.166;2022-11-27T11:03:48;135.45;;;55.78;;
25207;SDS011;13153;52.316;21.166;2022-11-27T11:06:17;124.38;;;53.03;;
25207;SDS011;13153;52.316;21.166;2022-11-27T11:11:47;131.25;;;52.47;;
25207;SDS011;13153;52.316;21.166;2022-11-27T11:14:14;134.38;;;54.05;;
25207;SDS011;13153;52.316;21.166;2022-11-27T11:16:44;128.77;;;52.38;;
25207;SDS011;13153;52.316;21.166;2022-11-27T11:22:02;120.93;;;50.47;;
25207;SDS011;13153;52.316;21.166;2022-11-27T11:24:38;116.43;;;49.80;;
25207;SDS011;13153;52.316;21.166;2022-11-27T11:27:25;126.00;;;52.33;;
25207;SDS011;13153;52.316;21.166;2022-11-27T11:32:27;122.25;;;50.00;;
25207;SDS011;13153;52.316;21.166;2022-11-27T11:35:01;115.85;;;51.22;;
25207;SDS011;13153;52.316;21.166;2022-11-27T11:40:21;122.05;;;54.80;;
25207;SDS011;13153;52.316;21.166;2022-11-27T11:42:59;122.68;;;50.53;;
25207;SDS011;13153;52.316;21.166;2022-11-27T11:45:33;122.50;;;52.08;;
25207;SDS011;13153;52.316;21.166;2022-11-27T11:48:25;113.07;;;49.42;;
25207;SDS011;13153;52.316;21.166;2022-11-27T11:51:11;120.57;;;51.20;;
25207;SDS011;13153;52.316;21.166;2022-11-27T11:53:55;111.90;;;49.85;;
25207;SDS011;13153;52.316;21.166;2022-11-27T11:56:56;118.38;;;49.33;;
25207;SDS011;13153;52.316;21.166;2022-11-27T12:46:35;110.32;;;46.85;;
25207;SDS011;13153;52.316;21.166;2022-11-27T12:48:54;109.43;;;48.10;;
25207;SDS011;13153;52.316;21.166;2022-11-27T12:51:42;110.43;;;48.13;;
25207;SDS011;13153;52.316;21.166;2022-11-27T12:55:03;105.53;;;47.53;;
25207;SDS011;13153;52.316;21.166;2022-11-27T12:57:33;104.25;;;46.00;;
25207;SDS011;13153;52.316;21.166;2022-11-27T13:00:12;109.28;;;48.28;;
25207;SDS011;13153;52.316;21.166;2022-11-27T13:10:53;110.70;;;49.75;;
25207;SDS011;13153;52.316;21.166;2022-11-27T13:16:18;114.60;;;51.20;;
25207;SDS011;13153;52.316;21.166;2022-11-27T13:18:53;119.72;;;55.38;;
25207;SDS011;13153;52.316;21.166;2022-11-27T13:21:45;118.30;;;51.50;;
25207;SDS011;13153;52.316;21.166;2022-11-27T13:24:13;116.63;;;49.85;;
25207;SDS011;13153;52.316;21.166;2022-11-27T13:29:30;122.88;;;51.85;;
25207;SDS011;13153;52.316;21.166;2022-11-27T13:32:09;120.07;;;50.72;;
25207;SDS011;13153;52.316;21.166;2022-11-27T13:34:47;128.68;;;53.10;;
25207;SDS011;13153;52.316;21.166;2022-11-27T13:42:55;127.68;;;53.08;;
25207;SDS011;13153;52.316;21.166;2022-11-27T13:45:32;123.07;;;51.40;;
25207;SDS011;13153;52.316;21.166;2022-11-27T13:48:01;133.82;;;53.80;;
25207;SDS011;13153;52.316;21.166;2022-11-27T13:50:52;132.02;;;52.88;;
25207;SDS011;13153;52.316;21.166;2022-11-27T13:53:18;139.73;;;55.05;;
25207;SDS011;13153;52.316;21.166;2022-11-27T13:55:59;142.15;;;54.90;;
25207;SDS011;13153;52.316;21.166;2022-11-27T13:58:30;156.80;;;57.53;;
25207;SDS011;13153;52.316;21.166;2022-11-27T14:01:11;145.00;;;57.15;;
25207;SDS011;13153;52.316;21.166;2022-11-27T14:03:43;150.32;;;56.40;;
25207;SDS011;13153;52.316;21.166;2022-11-27T14:09:01;139.80;;;54.75;;
25207;SDS011;13153;52.316;21.166;2022-11-27T14:13:58;186.38;;;67.28;;
25207;SDS011;13153;52.316;21.166;2022-11-27T14:16:34;226.52;;;78.15;;
25207;SDS011;13153;52.316;21.166;2022-11-27T14:19:05;266.33;;;76.53;;
25207;SDS011;13153;52.316;21.166;2022-11-27T14:21:52;300.23;;;84.75;;
25207;SDS011;13153;52.316;21.166;2022-11-27T14:26:54;188.70;;;62.42;;
25207;SDS011;13153;52.316;21.166;2022-11-27T14:29:21;139.50;;;54.50;;
25207;SDS011;13153;52.316;21.166;2022-11-27T14:31:56;124.40;;;51.58;;
25207;SDS011;13153;52.316;21.166;2022-11-27T14:36:58;116.78;;;50.00;;
25207;SDS011;13153;52.316;21.166;2022-11-27T14:39:43;118.25;;;49.53;;
25207;SDS011;13153;52.316;21.166;2022-11-27T14:42:23;114.82;;;50.47;;
25207;SDS011;13153;52.316;21.166;2022-11-27T14:45:01;124.43;;;53.10;;
25207;SDS011;13153;52.316;21.166;2022-11-27T14:47:44;114.13;;;51.08;;
25207;SDS011;13153;52.316;21.166;2022-11-27T14:50:14;126.38;;;53.30;;
25207;SDS011;13153;52.316;21.166;2022-11-27T14:52:42;124.47;;;53.97;;
25207;SDS011;13153;52.316;21.166;2022-11-27T14:55:16;139.20;;;57.17;;
25207;SDS011;13153;52.316;21.166;2022-11-27T14:57:43;145.43;;;61.95;;
25207;SDS011;13153;52.316;21.166;2022-11-27T15:00:14;152.63;;;62.78;;
25207;SDS011;13153;52.316;21.166;2022-11-27T15:02:44;150.90;;;62.88;;
25207;SDS011;13153;52.316;21.166;2022-11-27T15:05:16;140.40;;;61.20;;
25207;SDS011;13153;52.316;21.166;2022-11-27T15:07:50;138.10;;;59.60;;
25207;SDS011;13153;52.316;21.166;2022-11-27T15:10:28;129.68;;;57.05;;
25207;SDS011;13153;52.316;21.166;2022-11-27T15:13:06;135.32;;;58.15;;
25207;SDS011;13153;52.316;21.166;2022-11-27T15:15:50;132.30;;;58.45;;
25207;SDS011;13153;52.316;21.166;2022-11-27T15:18:41;155.32;;;65.53;;
25207;SDS011;13153;52.316;21.166;2022-11-27T15:21:16;144.77;;;61.05;;
25207;SDS011;13153;52.316;21.166;2022-11-27T15:23:46;133.65;;;57.17;;
25207;SDS011;13153;52.316;21.166;2022-11-27T15:26:30;131.82;;;58.22;;
25207;SDS011;13153;52.316;21.166;2022-11-27T15:28:57;138.35;;;58.13;;
25207;SDS011;13153;52.316;21.166;2022-11-27T15:31:24;133.10;;;55.65;;
25207;SDS011;13153;52.316;21.166;2022-11-27T15:33:55;193.07;;;69.45;;
25207;SDS011;13153;52.316;21.166;2022-11-27T15:41:52;233.52;;;75.70;;
25207;SDS011;13153;52.316;21.166;2022-11-27T15:44:24;327.55;;;110.38;;
25207;SDS011;13153;52.316;21.166;2022-11-27T15:46:53;394.55;;;138.68;;
25207;SDS011;13153;52.316;21.166;2022-11-27T15:49:22;344.23;;;123.05;;
25207;SDS011;13153;52.316;21.166;2022-11-27T15:51:48;257.73;;;101.32;;
25207;SDS011;13153;52.316;21.166;2022-11-27T15:54:14;190.90;;;79.15;;
25207;SDS011;13153;52.316;21.166;2022-11-27T15:56:40;179.63;;;76.32;;
25207;SDS011;13153;52.316;21.166;2022-11-27T15:59:07;198.43;;;82.93;;
25207;SDS011;13153;52.316;21.166;2022-11-27T16:01:34;203.52;;;87.10;;
25207;SDS011;13153;52.316;21.166;2022-11-27T16:04:01;198.07;;;83.78;;
25207;SDS011;13153;52.316;21.166;2022-11-27T16:06:27;164.75;;;73.70;;
25207;SDS011;13153;52.316;21.166;2022-11-27T16:08:57;165.40;;;72.60;;
25207;SDS011;13153;52.316;21.166;2022-11-27T16:11:26;180.48;;;78.63;;
25207;SDS011;13153;52.316;21.166;2022-11-27T16:13:54;195.18;;;84.43;;
25207;SDS011;13153;52.316;21.166;2022-11-27T16:16:20;179.93;;;78.00;;
25207;SDS011;13153;52.316;21.166;2022-11-27T16:18:47;167.10;;;72.65;;
25207;SDS011;13153;52.316;21.166;2022-11-27T16:21:13;143.40;;;60.55;;
25207;SDS011;13153;52.316;21.166;2022-11-27T16:23:41;147.57;;;61.20;;
25207;SDS011;13153;52.316;21.166;2022-11-27T16:26:11;228.27;;;99.45;;
25207;SDS011;13153;52.316;21.166;2022-11-27T16:28:38;169.63;;;74.35;;
25207;SDS011;13153;52.316;21.166;2022-11-27T16:31:07;149.35;;;61.67;;
25207;SDS011;13153;52.316;21.166;2022-11-27T16:33:37;135.20;;;57.67;;
25207;SDS011;13153;52.316;21.166;2022-11-27T16:36:03;148.43;;;62.35;;
25207;SDS011;13153;52.316;21.166;2022-11-27T16:38:38;146.20;;;62.05;;
25207;SDS011;13153;52.316;21.166;2022-11-27T16:41:06;149.40;;;67.20;;
25207;SDS011;13153;52.316;21.166;2022-11-27T16:43:42;160.27;;;75.07;;
25207;SDS011;13153;52.316;21.166;2022-11-27T16:46:20;151.55;;;68.78;;
25207;SDS011;13153;52.316;21.166;2022-11-27T16:48:52;150.45;;;66.93;;
25207;SDS011;13153;52.316;21.166;2022-11-27T16:51:22;153.88;;;67.32;;
25207;SDS011;13153;52.316;21.166;2022-11-27T16:53:56;156.30;;;67.05;;